sensor_id;sensor_type;location;lat;lon;timestamp;P1;durP1;ratioP1;P2;durP2;ratioP2
7523;SDS011;3803;51.666;7.630;2024-01-15T00:00:06;23.45;;;13.65;;
7523;SDS011;3803;51.666;7.630;2024-01-15T00:00:30;25.08;;;14.27;;
7523;SDS011;3803;51.666;7.630;2024-01-15T00:00:52;23.52;;;14.15;;
7523;SDS011;3803;51.666;7.630;2024-01-15T00:01:12;21.75;;;13.75;;
7523;SDS011;3803;51.666;7.630;2024-01-15T00:01:33;20.17;;;12.77;;
7523;SDS011;3803;51.666;7.630;2024-01-15T00:01:53;20.03;;;12.63;;
7523;SDS011;3803;51.666;7.630;2024-01-15T00:02:14;19.92;;;12.23;;
7523;SDS011;3803;51.666;7.630;2024-01-15T00:02:34;22.40;;;13.30;;
7523;SDS011;3803;51.666;7.630;2024-01-15T00:02:55;22.02;;;13.20;;
7523;SDS011;3803;51.666;7.630;2024-01-15T00:03:15;22.10;;;13.40;;
7523;SDS011;3803;51.666;7.630;2024-01-15T00:03:36;19.30;;;12.27;;
7523;SDS011;3803;51.666;7.630;2024-01-15T00:03:57;19.63;;;12.43;;
7523;SDS011;3803;51.666;7.630;2024-01-15T00:04:17;18.65;;;12.38;;
7523;SDS011;3803;51.666;7.630;2024-01-15T00:04:39;19.35;;;12.63;;
7523;SDS011;3803;51.666;7.630;2024-01-15T00:05:00;20.75;;;12.80;;
7523;SDS011;3803;51.666;7.630;2024-01-15T00:05:21;22.63;;;13.30;;
7523;SDS011;3803;51.666;7.630;2024-01-15T00:05:41;22.67;;;13.30;;
7523;SDS011;3803;51.666;7.630;2024-01-15T00:06:02;20.25;;;12.73;;
7523;SDS011;3803;51.666;7.630;2024-01-15T00:06:23;22.48;;;12.88;;
7523;SDS011;3803;51.666;7.630;2024-01-15T00:06:43;21.88;;;12.88;;
7523;SDS011;3803;51.666;7.630;2024-01-15T00:07:04;21.77;;;13.07;;
7523;SDS011;3803;51.666;7.630;2024-01-15T00:07:28;19.52;;;13.13;;
7523;SDS011;3803;51.666;7.630;2024-01-15T00:07:49;19.30;;;12.60;;
7523;SDS011;3803;51.666;7.630;2024-01-15T00:08:09;19.57;;;12.30;;
7523;SDS011;3803;51.666;7.630;2024-01-15T00:08:30;21.02;;;12.10;;
7523;SDS011;3803;51.666;7.630;2024-01-15T00:08:50;20.73;;;12.40;;
7523;SDS011;3803;51.666;7.630;2024-01-15T00:09:11;20.73;;;12.88;;
7523;SDS011;3803;51.666;7.630;2024-01-15T00:09:31;17.90;;;12.57;;
7523;SDS011;3803;51.666;7.630;2024-01-15T00:09:52;19.70;;;12.83;;
7523;SDS011;3803;51.666;7.630;2024-01-15T00:10:13;18.98;;;12.07;;
7523;SDS011;3803;51.666;7.630;2024-01-15T00:10:33;24.98;;;12.50;;
7523;SDS011;3803;51.666;7.630;2024-01-15T00:10:59;23.60;;;12.67;;
7523;SDS011;3803;51.666;7.630;2024-01-15T00:11:19;23.08;;;12.35;;
7523;SDS011;3803;51.666;7.630;2024-01-15T00:11:40;19.35;;;12.43;;
7523;SDS011;3803;51.666;7.630;2024-01-15T00:12:01;20.00;;;12.93;;
7523;SDS011;3803;51.666;7.630;2024-01-15T00:12:22;19.48;;;13.20;;
7523;SDS011;3803;51.666;7.630;2024-01-15T00:12:43;21.48;;;13.65;;
7523;SDS011;3803;51.666;7.630;2024-01-15T00:13:04;21.53;;;13.30;;
7523;SDS011;3803;51.666;7.630;2024-01-15T00:13:24;23.40;;;13.30;;
7523;SDS011;3803;51.666;7.630;2024-01-15T00:13:45;22.20;;;12.88;;
7523;SDS011;3803;51.666;7.630;2024-01-15T00:14:05;21.97;;;13.00;;
7523;SDS011;3803;51.666;7.630;2024-01-15T00:14:26;20.33;;;12.90;;
7523;SDS011;3803;51.666;7.630;2024-01-15T00:14:47;19.02;;;12.80;;
7523;SDS011;3803;51.666;7.630;2024-01-15T00:15:08;19.10;;;12.43;;
7523;SDS011;3803;51.666;7.630;2024-01-15T00:15:29;19.57;;;12.27;;
7523;SDS011;3803;51.666;7.630;2024-01-15T00:15:50;19.90;;;11.90;;
7523;SDS011;3803;51.666;7.630;2024-01-15T00:16:10;18.70;;;12.00;;
7523;SDS011;3803;51.666;7.630;2024-01-15T00:16:32;17.60;;;12.02;;
7523;SDS011;3803;51.666;7.630;2024-01-15T00:16:52;16.73;;;12.17;;
7523;SDS011;3803;51.666;7.630;2024-01-15T00:17:15;19.40;;;12.40;;
7523;SDS011;3803;51.666;7.630;2024-01-15T00:17:35;20.00;;;12.53;;
7523;SDS011;3803;51.666;7.630;2024-01-15T00:17:56;22.77;;;12.13;;
7523;SDS011;3803;51.666;7.630;2024-01-15T00:18:17;23.13;;;12.18;;
7523;SDS011;3803;51.666;7.630;2024-01-15T00:18:37;21.80;;;12.03;;
7523;SDS011;3803;51.666;7.630;2024-01-15T00:18:58;19.80;;;12.03;;
7523;SDS011;3803;51.666;7.630;2024-01-15T00:19:18;17.52;;;11.27;;
7523;SDS011;3803;51.666;7.630;2024-01-15T00:19:39;18.23;;;11.13;;
7523;SDS011;3803;51.666;7.630;2024-01-15T00:19:59;19.83;;;11.50;;
7523;SDS011;3803;51.666;7.630;2024-01-15T00:20:20;18.95;;;11.93;;
7523;SDS011;3803;51.666;7.630;2024-01-15T00:20:41;18.95;;;11.70;;
7523;SDS011;3803;51.666;7.630;2024-01-15T00:21:01;17.97;;;11.57;;
7523;SDS011;3803;51.666;7.630;2024-01-15T00:21:22;16.98;;;11.27;;
7523;SDS011;3803;51.666;7.630;2024-01-15T00:21:44;16.50;;;11.27;;
7523;SDS011;3803;51.666;7.630;2024-01-15T00:22:05;16.88;;;11.40;;
7523;SDS011;3803;51.666;7.630;2024-01-15T00:22:25;17.92;;;11.88;;
7523;SDS011;3803;51.666;7.630;2024-01-15T00:22:47;19.10;;;12.38;;
7523;SDS011;3803;51.666;7.630;2024-01-15T00:23:07;19.95;;;12.95;;
7523;SDS011;3803;51.666;7.630;2024-01-15T00:23:28;21.38;;;12.82;;
7523;SDS011;3803;51.666;7.630;2024-01-15T00:23:49;21.00;;;12.57;;
7523;SDS011;3803;51.666;7.630;2024-01-15T00:24:09;21.98;;;12.77;;
7523;SDS011;3803;51.666;7.630;2024-01-15T00:24:30;21.85;;;13.07;;
7523;SDS011;3803;51.666;7.630;2024-01-15T00:24:50;22.67;;;13.20;;
7523;SDS011;3803;51.666;7.630;2024-01-15T00:25:11;20.23;;;12.70;;
7523;SDS011;3803;51.666;7.630;2024-01-15T00:25:32;20.58;;;12.75;;
7523;SDS011;3803;51.666;7.630;2024-01-15T00:25:52;21.60;;;13.10;;
7523;SDS011;3803;51.666;7.630;2024-01-15T00:26:13;22.20;;;13.73;;
7523;SDS011;3803;51.666;7.630;2024-01-15T00:26:33;22.65;;;13.80;;
7523;SDS011;3803;51.666;7.630;2024-01-15T00:26:54;20.88;;;13.13;;
7523;SDS011;3803;51.666;7.630;2024-01-15T00:27:15;22.80;;;12.70;;
7523;SDS011;3803;51.666;7.630;2024-01-15T00:27:36;23.10;;;12.40;;
7523;SDS011;3803;51.666;7.630;2024-01-15T00:27:57;22.77;;;12.57;;
7523;SDS011;3803;51.666;7.630;2024-01-15T00:28:18;19.13;;;12.80;;
7523;SDS011;3803;51.666;7.630;2024-01-15T00:28:38;17.90;;;12.90;;
7523;SDS011;3803;51.666;7.630;2024-01-15T00:28:59;19.15;;;12.85;;
7523;SDS011;3803;51.666;7.630;2024-01-15T00:29:20;22.33;;;12.15;;
7523;SDS011;3803;51.666;7.630;2024-01-15T00:29:40;23.10;;;11.40;;
7523;SDS011;3803;51.666;7.630;2024-01-15T00:30:01;23.23;;;11.30;;
7523;SDS011;3803;51.666;7.630;2024-01-15T00:30:21;21.13;;;11.50;;
7523;SDS011;3803;51.666;7.630;2024-01-15T00:30:42;22.27;;;12.50;;
7523;SDS011;3803;51.666;7.630;2024-01-15T00:31:04;22.37;;;12.97;;
7523;SDS011;3803;51.666;7.630;2024-01-15T00:31:25;21.33;;;12.90;;
7523;SDS011;3803;51.666;7.630;2024-01-15T00:31:46;20.30;;;12.73;;
7523;SDS011;3803;51.666;7.630;2024-01-15T00:32:07;21.48;;;13.23;;
7523;SDS011;3803;51.666;7.630;2024-01-15T00:32:28;21.20;;;13.80;;
7523;SDS011;3803;51.666;7.630;2024-01-15T00:32:48;23.23;;;14.03;;
7523;SDS011;3803;51.666;7.630;2024-01-15T00:33:09;22.33;;;13.30;;
7523;SDS011;3803;51.666;7.630;2024-01-15T00:33:32;21.83;;;12.77;;
7523;SDS011;3803;51.666;7.630;2024-01-15T00:33:53;22.48;;;12.93;;
7523;SDS011;3803;51.666;7.630;2024-01-15T00:34:13;22.05;;;12.98;;
7523;SDS011;3803;51.666;7.630;2024-01-15T00:34:34;22.10;;;12.87;;
7523;SDS011;3803;51.666;7.630;2024-01-15T00:34:54;19.10;;;12.18;;
7523;SDS011;3803;51.666;7.630;2024-01-15T00:35:15;17.97;;;11.80;;
7523;SDS011;3803;51.666;7.630;2024-01-15T00:35:35;21.83;;;12.57;;
7523;SDS011;3803;51.666;7.630;2024-01-15T00:35:57;23.28;;;13.32;;
7523;SDS011;3803;51.666;7.630;2024-01-15T00:36:17;25.60;;;14.10;;
7523;SDS011;3803;51.666;7.630;2024-01-15T00:36:38;21.38;;;13.23;;
7523;SDS011;3803;51.666;7.630;2024-01-15T00:36:58;25.70;;;13.35;;
7523;SDS011;3803;51.666;7.630;2024-01-15T00:37:19;23.70;;;12.50;;
7523;SDS011;3803;51.666;7.630;2024-01-15T00:37:40;23.35;;;13.05;;
7523;SDS011;3803;51.666;7.630;2024-01-15T00:38:00;21.20;;;12.65;;
7523;SDS011;3803;51.666;7.630;2024-01-15T00:38:21;21.00;;;12.70;;
7523;SDS011;3803;51.666;7.630;2024-01-15T00:38:48;21.10;;;12.63;;
7523;SDS011;3803;51.666;7.630;2024-01-15T00:39:11;19.98;;;13.38;;
7523;SDS011;3803;51.666;7.630;2024-01-15T00:39:31;19.17;;;12.90;;
7523;SDS011;3803;51.666;7.630;2024-01-15T00:39:52;21.63;;;12.63;;
7523;SDS011;3803;51.666;7.630;2024-01-15T00:40:12;20.73;;;11.70;;
7523;SDS011;3803;51.666;7.630;2024-01-15T00:40:33;19.60;;;11.57;;
7523;SDS011;3803;51.666;7.630;2024-01-15T00:40:54;19.05;;;12.45;;
7523;SDS011;3803;51.666;7.630;2024-01-15T00:41:15;19.38;;;13.05;;
7523;SDS011;3803;51.666;7.630;2024-01-15T00:41:35;21.27;;;13.10;;
7523;SDS011;3803;51.666;7.630;2024-01-15T00:41:56;23.67;;;13.35;;
7523;SDS011;3803;51.666;7.630;2024-01-15T00:42:17;22.73;;;13.50;;
7523;SDS011;3803;51.666;7.630;2024-01-15T00:42:37;21.88;;;12.77;;
7523;SDS011;3803;51.666;7.630;2024-01-15T00:42:58;17.77;;;11.82;;
7523;SDS011;3803;51.666;7.630;2024-01-15T00:43:19;16.50;;;10.90;;
7523;SDS011;3803;51.666;7.630;2024-01-15T00:44:28;21.92;;;13.13;;
7523;SDS011;3803;51.666;7.630;2024-01-15T00:44:48;16.52;;;12.02;;
7523;SDS011;3803;51.666;7.630;2024-01-15T00:45:09;15.00;;;11.53;;
7523;SDS011;3803;51.666;7.630;2024-01-15T00:45:30;17.25;;;11.50;;
7523;SDS011;3803;51.666;7.630;2024-01-15T00:45:50;19.55;;;12.43;;
7523;SDS011;3803;51.666;7.630;2024-01-15T00:46:11;22.40;;;13.60;;
7523;SDS011;3803;51.666;7.630;2024-01-15T00:46:31;21.00;;;13.80;;
7523;SDS011;3803;51.666;7.630;2024-01-15T00:46:52;23.08;;;13.10;;
7523;SDS011;3803;51.666;7.630;2024-01-15T00:47:12;23.30;;;12.30;;
7523;SDS011;3803;51.666;7.630;2024-01-15T00:55:52;21.42;;;11.70;;
7523;SDS011;3803;51.666;7.630;2024-01-15T00:56:14;16.35;;;10.90;;
7523;SDS011;3803;51.666;7.630;2024-01-15T00:56:34;17.20;;;11.07;;
7523;SDS011;3803;51.666;7.630;2024-01-15T00:56:55;18.67;;;11.30;;
7523;SDS011;3803;51.666;7.630;2024-01-15T00:57:15;18.33;;;11.73;;
7523;SDS011;3803;51.666;7.630;2024-01-15T00:57:54;18.50;;;12.10;;
7523;SDS011;3803;51.666;7.630;2024-01-15T00:58:15;23.90;;;11.93;;
7523;SDS011;3803;51.666;7.630;2024-01-15T00:58:36;22.60;;;11.80;;
7523;SDS011;3803;51.666;7.630;2024-01-15T00:58:56;17.95;;;11.73;;
7523;SDS011;3803;51.666;7.630;2024-01-15T00:59:17;17.92;;;12.15;;
7523;SDS011;3803;51.666;7.630;2024-01-15T00:59:43;17.80;;;11.90;;
7523;SDS011;3803;51.666;7.630;2024-01-15T01:00:03;17.75;;;12.10;;
7523;SDS011;3803;51.666;7.630;2024-01-15T01:00:25;18.50;;;12.15;;
7523;SDS011;3803;51.666;7.630;2024-01-15T01:00:45;17.33;;;11.77;;
7523;SDS011;3803;51.666;7.630;2024-01-15T01:01:06;19.30;;;12.13;;
7523;SDS011;3803;51.666;7.630;2024-01-15T01:01:26;18.48;;;11.43;;
7523;SDS011;3803;51.666;7.630;2024-01-15T01:01:47;18.40;;;11.80;;
7523;SDS011;3803;51.666;7.630;2024-01-15T01:02:07;16.13;;;11.50;;
7523;SDS011;3803;51.666;7.630;2024-01-15T01:02:28;15.55;;;11.20;;
7523;SDS011;3803;51.666;7.630;2024-01-15T01:02:48;16.23;;;10.57;;
7523;SDS011;3803;51.666;7.630;2024-01-15T01:03:09;16.48;;;10.15;;
7523;SDS011;3803;51.666;7.630;2024-01-15T01:03:30;23.73;;;11.10;;
7523;SDS011;3803;51.666;7.630;2024-01-15T01:03:50;27.30;;;12.30;;
7523;SDS011;3803;51.666;7.630;2024-01-15T01:04:11;25.63;;;12.43;;
7523;SDS011;3803;51.666;7.630;2024-01-15T01:04:32;22.30;;;12.45;;
7523;SDS011;3803;51.666;7.630;2024-01-15T01:04:52;21.10;;;11.80;;
7523;SDS011;3803;51.666;7.630;2024-01-15T01:05:13;20.42;;;11.63;;
7523;SDS011;3803;51.666;7.630;2024-01-15T01:05:36;17.95;;;11.43;;
7523;SDS011;3803;51.666;7.630;2024-01-15T01:05:57;19.85;;;11.80;;
7523;SDS011;3803;51.666;7.630;2024-01-15T01:06:18;21.02;;;11.88;;
7523;SDS011;3803;51.666;7.630;2024-01-15T01:06:38;17.93;;;11.30;;
7523;SDS011;3803;51.666;7.630;2024-01-15T01:07:00;17.74;;;11.52;;
7523;SDS011;3803;51.666;7.630;2024-01-15T01:07:20;18.53;;;11.77;;
7523;SDS011;3803;51.666;7.630;2024-01-15T01:07:41;19.40;;;12.07;;
7523;SDS011;3803;51.666;7.630;2024-01-15T01:08:01;19.15;;;11.82;;
7523;SDS011;3803;51.666;7.630;2024-01-15T01:08:22;21.07;;;11.63;;
7523;SDS011;3803;51.666;7.630;2024-01-15T01:08:43;20.95;;;11.57;;
7523;SDS011;3803;51.666;7.630;2024-01-15T01:09:03;19.55;;;11.60;;
7523;SDS011;3803;51.666;7.630;2024-01-15T01:09:25;19.08;;;11.60;;
7523;SDS011;3803;51.666;7.630;2024-01-15T01:09:45;20.13;;;11.52;;
7523;SDS011;3803;51.666;7.630;2024-01-15T01:10:06;20.40;;;11.63;;
7523;SDS011;3803;51.666;7.630;2024-01-15T01:10:27;17.45;;;11.50;;
7523;SDS011;3803;51.666;7.630;2024-01-15T01:10:48;17.48;;;11.27;;
7523;SDS011;3803;51.666;7.630;2024-01-15T01:11:12;17.40;;;11.17;;
7523;SDS011;3803;51.666;7.630;2024-01-15T01:11:33;15.88;;;11.25;;
7523;SDS011;3803;51.666;7.630;2024-01-15T01:11:54;15.60;;;11.40;;
7523;SDS011;3803;51.666;7.630;2024-01-15T01:12:14;16.20;;;11.57;;
7523;SDS011;3803;51.666;7.630;2024-01-15T01:12:35;16.63;;;11.87;;
7523;SDS011;3803;51.666;7.630;2024-01-15T01:12:56;17.55;;;11.77;;
7523;SDS011;3803;51.666;7.630;2024-01-15T01:13:16;18.35;;;11.68;;
7523;SDS011;3803;51.666;7.630;2024-01-15T01:13:37;21.10;;;11.90;;
7523;SDS011;3803;51.666;7.630;2024-01-15T01:13:57;24.10;;;12.15;;
7523;SDS011;3803;51.666;7.630;2024-01-15T01:14:18;21.90;;;11.90;;
7523;SDS011;3803;51.666;7.630;2024-01-15T01:14:39;19.33;;;11.53;;
7523;SDS011;3803;51.666;7.630;2024-01-15T01:14:59;18.88;;;12.00;;
7523;SDS011;3803;51.666;7.630;2024-01-15T01:15:20;20.25;;;12.02;;
7523;SDS011;3803;51.666;7.630;2024-01-15T01:15:41;20.25;;;11.50;;
7523;SDS011;3803;51.666;7.630;2024-01-15T01:16:02;18.75;;;10.63;;
7523;SDS011;3803;51.666;7.630;2024-01-15T01:16:23;19.27;;;11.05;;
7523;SDS011;3803;51.666;7.630;2024-01-15T01:16:44;23.60;;;11.60;;
7523;SDS011;3803;51.666;7.630;2024-01-15T01:17:04;22.10;;;11.80;;
7523;SDS011;3803;51.666;7.630;2024-01-15T01:17:25;22.47;;;11.30;;
7523;SDS011;3803;51.666;7.630;2024-01-15T01:17:45;18.95;;;11.57;;
7523;SDS011;3803;51.666;7.630;2024-01-15T01:18:06;19.50;;;11.98;;
7523;SDS011;3803;51.666;7.630;2024-01-15T01:18:27;16.30;;;11.75;;
7523;SDS011;3803;51.666;7.630;2024-01-15T01:18:47;21.70;;;11.47;;
7523;SDS011;3803;51.666;7.630;2024-01-15T01:19:08;22.42;;;11.00;;
7523;SDS011;3803;51.666;7.630;2024-01-15T01:19:29;23.40;;;11.38;;
7523;SDS011;3803;51.666;7.630;2024-01-15T01:19:50;16.77;;;10.60;;
7523;SDS011;3803;51.666;7.630;2024-01-15T01:20:11;16.35;;;9.75;;
7523;SDS011;3803;51.666;7.630;2024-01-15T01:20:31;16.17;;;9.50;;
7523;SDS011;3803;51.666;7.630;2024-01-15T01:20:52;18.50;;;10.07;;
7523;SDS011;3803;51.666;7.630;2024-01-15T01:21:12;17.80;;;10.45;;
7523;SDS011;3803;51.666;7.630;2024-01-15T01:21:33;19.03;;;10.87;;
7523;SDS011;3803;51.666;7.630;2024-01-15T01:21:54;17.95;;;10.50;;
7523;SDS011;3803;51.666;7.630;2024-01-15T01:22:14;21.73;;;10.67;;
7523;SDS011;3803;51.666;7.630;2024-01-15T01:22:35;22.80;;;11.05;;
7523;SDS011;3803;51.666;7.630;2024-01-15T01:22:55;27.13;;;12.40;;
7523;SDS011;3803;51.666;7.630;2024-01-15T01:23:16;24.63;;;12.10;;
7523;SDS011;3803;51.666;7.630;2024-01-15T01:23:36;25.13;;;11.80;;
7523;SDS011;3803;51.666;7.630;2024-01-15T01:23:57;21.73;;;11.05;;
7523;SDS011;3803;51.666;7.630;2024-01-15T01:24:18;19.58;;;11.13;;
7523;SDS011;3803;51.666;7.630;2024-01-15T01:24:38;18.23;;;10.77;;
7523;SDS011;3803;51.666;7.630;2024-01-15T01:24:59;16.65;;;11.02;;
7523;SDS011;3803;51.666;7.630;2024-01-15T01:25:19;22.40;;;11.30;;
7523;SDS011;3803;51.666;7.630;2024-01-15T01:25:40;22.30;;;11.50;;
7523;SDS011;3803;51.666;7.630;2024-01-15T01:26:00;24.70;;;11.90;;
7523;SDS011;3803;51.666;7.630;2024-01-15T01:26:21;20.05;;;11.85;;
7523;SDS011;3803;51.666;7.630;2024-01-15T01:26:41;19.70;;;11.80;;
7523;SDS011;3803;51.666;7.630;2024-01-15T01:27:02;23.25;;;12.13;;
7523;SDS011;3803;51.666;7.630;2024-01-15T01:27:23;22.53;;;12.03;;
7523;SDS011;3803;51.666;7.630;2024-01-15T01:27:43;22.27;;;12.20;;
7523;SDS011;3803;51.666;7.630;2024-01-15T01:28:04;19.38;;;11.80;;
7523;SDS011;3803;51.666;7.630;2024-01-15T01:28:24;21.77;;;12.05;;
7523;SDS011;3803;51.666;7.630;2024-01-15T01:28:45;20.27;;;11.30;;
7523;SDS011;3803;51.666;7.630;2024-01-15T01:29:06;18.70;;;10.70;;
7523;SDS011;3803;51.666;7.630;2024-01-15T01:29:27;19.30;;;11.10;;
7523;SDS011;3803;51.666;7.630;2024-01-15T01:29:47;23.08;;;11.93;;
7523;SDS011;3803;51.666;7.630;2024-01-15T01:30:08;24.85;;;12.65;;
7523;SDS011;3803;51.666;7.630;2024-01-15T01:30:29;25.38;;;12.07;;
7523;SDS011;3803;51.666;7.630;2024-01-15T01:30:49;22.77;;;11.87;;
7523;SDS011;3803;51.666;7.630;2024-01-15T01:31:10;24.08;;;11.55;;
7523;SDS011;3803;51.666;7.630;2024-01-15T01:31:30;22.50;;;11.67;;
7523;SDS011;3803;51.666;7.630;2024-01-15T01:31:51;24.10;;;11.45;;
7523;SDS011;3803;51.666;7.630;2024-01-15T01:32:11;20.23;;;10.80;;
7523;SDS011;3803;51.666;7.630;2024-01-15T01:32:32;19.20;;;10.67;;
7523;SDS011;3803;51.666;7.630;2024-01-15T01:32:52;21.23;;;11.02;;
7523;SDS011;3803;51.666;7.630;2024-01-15T01:33:13;22.80;;;11.40;;
7523;SDS011;3803;51.666;7.630;2024-01-15T01:33:33;23.23;;;11.47;;
7523;SDS011;3803;51.666;7.630;2024-01-15T01:33:54;18.38;;;10.70;;
7523;SDS011;3803;51.666;7.630;2024-01-15T01:34:15;19.70;;;11.60;;
7523;SDS011;3803;51.666;7.630;2024-01-15T01:34:39;18.30;;;11.25;;
7523;SDS011;3803;51.666;7.630;2024-01-15T01:35:04;19.25;;;11.25;;
7523;SDS011;3803;51.666;7.630;2024-01-15T01:35:24;20.92;;;11.20;;
7523;SDS011;3803;51.666;7.630;2024-01-15T01:35:45;21.75;;;11.15;;
7523;SDS011;3803;51.666;7.630;2024-01-15T01:36:07;22.02;;;11.80;;
7523;SDS011;3803;51.666;7.630;2024-01-15T01:36:31;22.30;;;11.95;;
7523;SDS011;3803;51.666;7.630;2024-01-15T01:36:51;20.25;;;11.75;;
7523;SDS011;3803;51.666;7.630;2024-01-15T01:37:12;18.53;;;11.20;;
7523;SDS011;3803;51.666;7.630;2024-01-15T01:37:35;19.75;;;11.38;;
7523;SDS011;3803;51.666;7.630;2024-01-15T01:37:56;19.48;;;11.80;;
7523;SDS011;3803;51.666;7.630;2024-01-15T01:38:17;18.50;;;11.90;;
7523;SDS011;3803;51.666;7.630;2024-01-15T01:38:37;17.43;;;11.90;;
7523;SDS011;3803;51.666;7.630;2024-01-15T01:38:58;16.17;;;11.15;;
7523;SDS011;3803;51.666;7.630;2024-01-15T01:39:18;17.37;;;10.63;;
7523;SDS011;3803;51.666;7.630;2024-01-15T01:39:40;17.17;;;10.50;;
7523;SDS011;3803;51.666;7.630;2024-01-15T01:40:01;16.55;;;10.27;;
7523;SDS011;3803;51.666;7.630;2024-01-15T01:40:22;17.42;;;10.70;;
7523;SDS011;3803;51.666;7.630;2024-01-15T01:40:42;19.08;;;11.00;;
7523;SDS011;3803;51.666;7.630;2024-01-15T01:41:03;19.70;;;11.30;;
7523;SDS011;3803;51.666;7.630;2024-01-15T01:41:24;18.65;;;11.68;;
7523;SDS011;3803;51.666;7.630;2024-01-15T01:41:44;18.80;;;11.40;;
7523;SDS011;3803;51.666;7.630;2024-01-15T01:42:05;18.03;;;10.80;;
7523;SDS011;3803;51.666;7.630;2024-01-15T01:42:25;17.63;;;10.50;;
7523;SDS011;3803;51.666;7.630;2024-01-15T01:42:46;17.45;;;10.38;;
7523;SDS011;3803;51.666;7.630;2024-01-15T01:43:08;16.93;;;10.83;;
7523;SDS011;3803;51.666;7.630;2024-01-15T01:43:29;17.60;;;10.90;;
7523;SDS011;3803;51.666;7.630;2024-01-15T01:43:50;16.70;;;10.82;;
7523;SDS011;3803;51.666;7.630;2024-01-15T01:44:10;16.17;;;10.73;;
7523;SDS011;3803;51.666;7.630;2024-01-15T01:44:31;15.00;;;10.13;;
7523;SDS011;3803;51.666;7.630;2024-01-15T01:44:52;15.88;;;10.25;;
7523;SDS011;3803;51.666;7.630;2024-01-15T01:45:13;16.27;;;10.27;;
7523;SDS011;3803;51.666;7.630;2024-01-15T01:45:33;16.83;;;11.30;;
7523;SDS011;3803;51.666;7.630;2024-01-15T01:45:54;17.13;;;11.53;;
7523;SDS011;3803;51.666;7.630;2024-01-15T01:46:18;17.38;;;11.02;;
7523;SDS011;3803;51.666;7.630;2024-01-15T01:46:39;16.93;;;10.27;;
7523;SDS011;3803;51.666;7.630;2024-01-15T01:47:00;25.20;;;10.55;;
7523;SDS011;3803;51.666;7.630;2024-01-15T01:47:21;26.73;;;11.25;;
7523;SDS011;3803;51.666;7.630;2024-01-15T01:47:42;26.95;;;11.45;;
7523;SDS011;3803;51.666;7.630;2024-01-15T01:48:03;19.73;;;11.20;;
7523;SDS011;3803;51.666;7.630;2024-01-15T01:48:24;17.73;;;11.10;;
7523;SDS011;3803;51.666;7.630;2024-01-15T01:48:48;18.73;;;11.10;;
7523;SDS011;3803;51.666;7.630;2024-01-15T01:49:09;19.50;;;10.80;;
7523;SDS011;3803;51.666;7.630;2024-01-15T01:49:30;20.95;;;10.63;;
7523;SDS011;3803;51.666;7.630;2024-01-15T01:49:50;21.30;;;11.27;;
7523;SDS011;3803;51.666;7.630;2024-01-15T01:50:11;21.48;;;10.93;;
7523;SDS011;3803;51.666;7.630;2024-01-15T01:50:33;20.10;;;10.35;;
7523;SDS011;3803;51.666;7.630;2024-01-15T01:50:54;15.80;;;9.70;;
7523;SDS011;3803;51.666;7.630;2024-01-15T01:51:18;14.98;;;9.68;;
7523;SDS011;3803;51.666;7.630;2024-01-15T01:51:40;18.98;;;10.45;;
7523;SDS011;3803;51.666;7.630;2024-01-15T01:52:01;19.33;;;10.52;;
7523;SDS011;3803;51.666;7.630;2024-01-15T01:52:24;17.73;;;10.82;;
7523;SDS011;3803;51.666;7.630;2024-01-15T01:52:45;16.02;;;10.32;;
7523;SDS011;3803;51.666;7.630;2024-01-15T01:53:05;14.30;;;10.00;;
7523;SDS011;3803;51.666;7.630;2024-01-15T01:53:26;16.55;;;10.05;;
7523;SDS011;3803;51.666;7.630;2024-01-15T01:53:49;19.15;;;11.07;;
7523;SDS011;3803;51.666;7.630;2024-01-15T01:54:11;18.17;;;11.10;;
7523;SDS011;3803;51.666;7.630;2024-01-15T01:54:33;17.38;;;10.57;;
7523;SDS011;3803;51.666;7.630;2024-01-15T01:54:55;18.02;;;10.27;;
7523;SDS011;3803;51.666;7.630;2024-01-15T01:55:17;20.27;;;11.20;;
7523;SDS011;3803;51.666;7.630;2024-01-15T01:55:39;19.85;;;11.07;;
7523;SDS011;3803;51.666;7.630;2024-01-15T01:56:00;16.70;;;10.27;;
7523;SDS011;3803;51.666;7.630;2024-01-15T01:56:21;18.25;;;10.32;;
7523;SDS011;3803;51.666;7.630;2024-01-15T01:56:41;18.73;;;10.40;;
7523;SDS011;3803;51.666;7.630;2024-01-15T01:57:03;20.33;;;10.27;;
7523;SDS011;3803;51.666;7.630;2024-01-15T01:57:25;20.40;;;10.00;;
7523;SDS011;3803;51.666;7.630;2024-01-15T01:57:45;22.17;;;10.40;;
7523;SDS011;3803;51.666;7.630;2024-01-15T01:58:06;20.20;;;10.20;;
7523;SDS011;3803;51.666;7.630;2024-01-15T01:58:27;15.93;;;9.55;;
7523;SDS011;3803;51.666;7.630;2024-01-15T01:58:49;16.90;;;9.38;;
7523;SDS011;3803;51.666;7.630;2024-01-15T01:59:09;18.83;;;9.77;;
7523;SDS011;3803;51.666;7.630;2024-01-15T01:59:31;19.85;;;9.98;;
7523;SDS011;3803;51.666;7.630;2024-01-15T01:59:54;17.73;;;10.38;;
7523;SDS011;3803;51.666;7.630;2024-01-15T02:00:15;20.65;;;10.85;;
7523;SDS011;3803;51.666;7.630;2024-01-15T02:00:36;21.30;;;10.60;;
7523;SDS011;3803;51.666;7.630;2024-01-15T02:00:58;21.05;;;10.27;;
7523;SDS011;3803;51.666;7.630;2024-01-15T02:01:19;17.33;;;9.90;;
7523;SDS011;3803;51.666;7.630;2024-01-15T02:01:40;19.13;;;10.73;;
7523;SDS011;3803;51.666;7.630;2024-01-15T02:02:02;18.67;;;9.77;;
7523;SDS011;3803;51.666;7.630;2024-01-15T02:02:24;19.33;;;9.93;;
7523;SDS011;3803;51.666;7.630;2024-01-15T02:02:45;15.55;;;9.10;;
7523;SDS011;3803;51.666;7.630;2024-01-15T02:03:06;17.75;;;9.50;;
7523;SDS011;3803;51.666;7.630;2024-01-15T02:03:27;16.13;;;9.55;;
7523;SDS011;3803;51.666;7.630;2024-01-15T02:03:48;15.27;;;9.60;;
7523;SDS011;3803;51.666;7.630;2024-01-15T02:04:09;14.32;;;9.40;;
7523;SDS011;3803;51.666;7.630;2024-01-15T02:04:31;16.58;;;9.57;;
7523;SDS011;3803;51.666;7.630;2024-01-15T02:04:52;21.90;;;10.00;;
7523;SDS011;3803;51.666;7.630;2024-01-15T02:05:14;20.02;;;9.63;;
7523;SDS011;3803;51.666;7.630;2024-01-15T02:05:39;20.30;;;8.90;;
7523;SDS011;3803;51.666;7.630;2024-01-15T02:06:00;21.27;;;9.10;;
7523;SDS011;3803;51.666;7.630;2024-01-15T02:06:21;19.85;;;9.05;;
7523;SDS011;3803;51.666;7.630;2024-01-15T02:06:41;19.03;;;9.03;;
7523;SDS011;3803;51.666;7.630;2024-01-15T02:07:02;14.70;;;8.80;;
7523;SDS011;3803;51.666;7.630;2024-01-15T02:07:24;13.88;;;8.82;;
7523;SDS011;3803;51.666;7.630;2024-01-15T02:07:45;14.85;;;8.85;;
7523;SDS011;3803;51.666;7.630;2024-01-15T02:08:06;14.43;;;8.63;;
7523;SDS011;3803;51.666;7.630;2024-01-15T02:08:27;15.60;;;8.98;;
7523;SDS011;3803;51.666;7.630;2024-01-15T02:08:47;15.05;;;9.13;;
7523;SDS011;3803;51.666;7.630;2024-01-15T02:09:08;16.30;;;9.63;;
7523;SDS011;3803;51.666;7.630;2024-01-15T02:09:30;14.63;;;9.05;;
7523;SDS011;3803;51.666;7.630;2024-01-15T02:09:52;16.50;;;9.62;;
7523;SDS011;3803;51.666;7.630;2024-01-15T02:10:13;19.27;;;10.07;;
7523;SDS011;3803;51.666;7.630;2024-01-15T02:10:34;21.02;;;10.50;;
7523;SDS011;3803;51.666;7.630;2024-01-15T02:10:54;18.50;;;10.07;;
7523;SDS011;3803;51.666;7.630;2024-01-15T02:11:15;14.82;;;9.57;;
7523;SDS011;3803;51.666;7.630;2024-01-15T02:11:35;14.90;;;9.57;;
7523;SDS011;3803;51.666;7.630;2024-01-15T02:11:56;16.25;;;9.63;;
7523;SDS011;3803;51.666;7.630;2024-01-15T02:12:17;17.13;;;9.30;;
7523;SDS011;3803;51.666;7.630;2024-01-15T02:12:38;17.25;;;9.25;;
7523;SDS011;3803;51.666;7.630;2024-01-15T02:12:59;17.67;;;9.37;;
7523;SDS011;3803;51.666;7.630;2024-01-15T02:13:20;18.37;;;9.97;;
7523;SDS011;3803;51.666;7.630;2024-01-15T02:13:40;15.35;;;9.32;;
7523;SDS011;3803;51.666;7.630;2024-01-15T02:14:01;16.73;;;9.60;;
7523;SDS011;3803;51.666;7.630;2024-01-15T02:14:22;18.23;;;9.65;;
7523;SDS011;3803;51.666;7.630;2024-01-15T02:14:43;21.08;;;10.57;;
7523;SDS011;3803;51.666;7.630;2024-01-15T02:15:04;18.53;;;10.17;;
7523;SDS011;3803;51.666;7.630;2024-01-15T02:15:25;18.50;;;10.20;;
7523;SDS011;3803;51.666;7.630;2024-01-15T02:15:46;17.65;;;10.30;;
7523;SDS011;3803;51.666;7.630;2024-01-15T02:16:06;17.90;;;10.13;;